Time;durP1;ratioP1;P1;durP2;ratioP2;P2;SDS_P1;SDS_P2;PMS_P1;PMS_P2;Temp;Humidity;BMP_temperature;BMP_pressure;BME280_temperature;BME280_humidity;BME280_pressure;Samples;Min_cycle;Max_cycle;Signal;HPM_P1;HPM_P2
2024/04/12 00:01:01;;;;;;;12.43;4.18;;;15.70;99.90;;;;;;2258263;26;20022;-69
2024/04/12 00:02:01;;;;;;;5.82;3.08;;;15.70;99.90;;;;;;2259001;26;20013;-68
2024/04/12 00:03:02;;;;;;;5.93;3.25;;;15.70;99.90;;;;;;2261373;26;20010;-68
2024/04/12 00:04:03;;;;;;;6.22;3.30;;;15.70;99.90;;;;;;2258226;26;20006;-68
2024/04/12 00:05:03;;;;;;;4.05;3.08;;;15.70;99.90;;;;;;2247487;26;20039;-68
2024/04/12 00:06:38;;;;;;;6.18;3.90;;;15.70;99.90;;;;;;2246796;26;20056;-68
2024/04/12 00:07:35;;;;;;;5.25;3.20;;;15.70;99.90;;;;;;2253558;26;20053;-68
2024/04/12 00:08:35;;;;;;;5.32;3.03;;;15.70;99.90;;;;;;2259527;26;19999;-69
2024/04/12 00:09:36;;;;;;;5.32;3.22;;;15.70;99.90;;;;;;2257161;26;19998;-68
2024/04/12 00:10:37;;;;;;;3.42;3.13;;;15.70;99.90;;;;;;2258831;26;20021;-68
2024/04/12 00:11:38;;;;;;;6.28;3.50;;;15.70;99.90;;;;;;2260692;26;20336;-69
2024/04/12 00:12:38;;;;;;;4.85;3.13;;;15.70;99.90;;;;;;2258592;26;19998;-69
2024/04/12 00:13:42;;;;;;;4.82;3.20;;;15.70;99.90;;;;;;2261532;26;20012;-70
2024/04/12 00:14:43;;;;;;;7.68;3.15;;;15.70;99.90;;;;;;2265269;26;19998;-69
2024/04/12 00:15:44;;;;;;;5.38;3.20;;;15.70;99.90;;;;;;2258170;26;20450;-70
2024/04/12 00:16:50;;;;;;;4.70;3.55;;;15.70;99.90;;;;;;2262211;26;21009;-69
2024/04/12 00:17:55;;;;;;;6.35;3.15;;;15.80;99.90;;;;;;2261549;26;20072;-69
2024/04/12 00:19:07;;;;;;;5.57;3.50;;;15.70;99.90;;;;;;2259921;26;20775;-69
2024/04/12 00:20:10;;;;;;;4.47;3.30;;;15.70;99.90;;;;;;2259175;26;20002;-69
2024/04/12 00:21:12;;;;;;;6.97;3.70;;;15.70;99.90;;;;;;2261328;26;20035;-70
2024/04/12 00:22:14;;;;;;;7.05;3.60;;;15.70;99.90;;;;;;2249824;26;20031;-69
2024/04/12 00:23:14;;;;;;;4.43;3.20;;;15.70;99.90;;;;;;2249401;26;20003;-69
2024/04/12 00:24:16;;;;;;;6.38;3.70;;;15.70;99.90;;;;;;2260727;26;20010;-70
2024/04/12 00:25:17;;;;;;;5.68;3.65;;;15.80;99.90;;;;;;2262250;26;20350;-69
2024/04/12 00:26:18;;;;;;;4.85;3.10;;;15.80;99.90;;;;;;2260338;26;19995;-69
2024/04/12 00:27:21;;;;;;;4.53;3.30;;;15.80;99.90;;;;;;2258505;26;20082;-69
2024/04/12 00:28:22;;;;;;;10.15;4.53;;;15.80;99.90;;;;;;2257979;26;20781;-69
2024/04/12 00:29:30;;;;;;;5.82;3.55;;;15.80;99.90;;;;;;2255684;26;20075;-69
2024/04/12 00:30:38;;;;;;;6.13;3.33;;;15.80;99.90;;;;;;2259125;26;20016;-69
2024/04/12 00:31:42;;;;;;;4.32;3.53;;;15.80;99.90;;;;;;2258250;26;20017;-69
2024/04/12 00:32:43;;;;;;;4.93;3.13;;;15.80;99.90;;;;;;2260330;26;20071;-69
2024/04/12 00:33:48;;;;;;;6.20;3.38;;;15.80;99.90;;;;;;2258158;26;19999;-69
2024/04/12 00:34:51;;;;;;;5.88;3.42;;;15.80;99.90;;;;;;2260641;26;20457;-69
2024/04/12 00:35:54;;;;;;;5.78;3.40;;;15.80;99.90;;;;;;2263079;26;20029;-69
2024/04/12 00:37:06;;;;;;;6.50;3.50;;;15.80;99.90;;;;;;2261902;26;20002;-69
2024/04/12 00:38:11;;;;;;;5.32;4.03;;;15.90;99.90;;;;;;2260007;26;20370;-68
2024/04/12 00:39:35;;;;;;;5.03;3.65;;;15.80;99.90;;;;;;2260130;26;20015;-69
2024/04/12 00:40:33;;;;;;;8.20;3.42;;;15.80;99.90;;;;;;2258211;26;20021;-69
2024/04/12 00:41:33;;;;;;;8.90;3.72;;;15.80;99.90;;;;;;2263828;26;20020;-69
2024/04/12 00:42:34;;;;;;;4.72;3.28;;;15.80;99.90;;;;;;2260309;26;20003;-69
2024/04/12 00:43:36;;;;;;;7.95;3.97;;;15.80;99.90;;;;;;2262886;26;20007;-69
2024/04/12 00:44:41;;;;;;;6.80;3.50;;;15.80;99.90;;;;;;2258700;26;19998;-69
2024/04/12 00:45:52;;;;;;;6.18;3.90;;;15.80;99.90;;;;;;2257906;26;20018;-69
2024/04/12 00:46:59;;;;;;;4.63;3.47;;;15.80;99.90;;;;;;2259585;26;19999;-69
2024/04/12 00:47:59;;;;;;;6.82;4.15;;;15.80;99.90;;;;;;2258365;26;20018;-70
2024/04/12 00:49:06;;;;;;;4.72;3.72;;;15.80;99.90;;;;;;2258917;26;20003;-69
2024/04/12 00:50:07;;;;;;;5.93;3.30;;;15.80;99.90;;;;;;2259254;26;20005;-68
2024/04/12 00:51:17;;;;;;;6.15;3.60;;;15.80;99.90;;;;;;2257559;26;20443;-68
2024/04/12 00:52:26;;;;;;;5.38;3.72;;;15.80;99.90;;;;;;2261452;26;20002;-68
2024/04/12 00:53:28;;;;;;;6.75;3.72;;;15.80;99.90;;;;;;2257252;26;20040;-68
2024/04/12 00:54:29;;;;;;;7.47;3.95;;;15.80;99.90;;;;;;2243723;26;20003;-68
2024/04/12 00:55:35;;;;;;;5.22;3.67;;;15.80;99.90;;;;;;2228347;26;20004;-68
2024/04/12 00:56:37;;;;;;;6.88;3.72;;;15.80;99.90;;;;;;2247588;26;19999;-69
2024/04/12 00:57:41;;;;;;;8.27;3.88;;;15.80;99.90;;;;;;2260987;26;20003;-68
2024/04/12 00:58:43;;;;;;;6.35;4.15;;;15.80;99.90;;;;;;2256509;26;20072;-68
2024/04/12 00:59:44;;;;;;;6.03;3.60;;;15.80;99.90;;;;;;2258106;26;20029;-68
2024/04/12 01:00:47;;;;;;;8.57;4.03;;;15.80;99.90;;;;;;2259505;26;20022;-68
2024/04/12 01:01:47;;;;;;;9.70;4.43;;;15.80;99.90;;;;;;2256843;26;20649;-68
2024/04/12 01:02:48;;;;;;;6.07;3.65;;;15.80;99.90;;;;;;2261415;26;20036;-69
2024/04/12 01:03:49;;;;;;;4.78;3.75;;;15.80;99.90;;;;;;2255998;26;20009;-69
2024/04/12 01:04:50;;;;;;;6.07;3.90;;;15.80;99.90;;;;;;2256942;26;19994;-68
2024/04/12 01:05:50;;;;;;;8.73;3.90;;;15.80;99.90;;;;;;2250934;26;20431;-68
2024/04/12 01:06:51;;;;;;;7.38;3.88;;;15.80;99.90;;;;;;2249391;26;20011;-68
2024/04/12 01:07:55;;;;;;;7.13;3.72;;;15.80;99.90;;;;;;2258721;26;19995;-68
2024/04/12 01:09:11;;;;;;;6.82;3.90;;;15.90;99.90;;;;;;2259589;26;20005;-68
2024/04/12 01:10:11;;;;;;;6.85;3.60;;;15.90;99.90;;;;;;2260360;26;20339;-68
2024/04/12 01:11:13;;;;;;;4.85;3.60;;;15.80;99.90;;;;;;2254418;26;20014;-68
2024/04/12 01:12:17;;;;;;;9.25;4.15;;;15.90;99.90;;;;;;2260105;26;20013;-69
2024/04/12 01:13:17;;;;;;;5.90;3.20;;;15.90;99.90;;;;;;2261267;26;20002;-68
2024/04/12 01:14:18;;;;;;;6.55;3.78;;;15.80;99.90;;;;;;2261671;26;19998;-69
2024/04/12 01:15:19;;;;;;;5.22;3.47;;;15.80;99.90;;;;;;2261488;26;20087;-69
2024/04/12 01:16:24;;;;;;;6.28;3.97;;;15.90;99.90;;;;;;2260582;26;20011;-69
2024/04/12 01:17:24;;;;;;;3.97;3.20;;;15.90;99.90;;;;;;2257144;26;20014;-68
2024/04/12 01:18:25;;;;;;;5.88;3.53;;;15.90;99.90;;;;;;2260323;26;20013;-68
2024/04/12 01:19:27;;;;;;;6.70;3.95;;;15.90;99.90;;;;;;2259079;26;20078;-68
2024/04/12 01:20:27;;;;;;;9.43;3.65;;;15.90;99.90;;;;;;2259732;26;20622;-69
2024/04/12 01:21:29;;;;;;;6.07;3.80;;;15.90;99.90;;;;;;2257429;26;20015;-69
2024/04/12 01:22:30;;;;;;;5.32;4.18;;;15.90;99.90;;;;;;2262323;26;20014;-69
2024/04/12 01:23:31;;;;;;;5.45;3.58;;;15.90;99.90;;;;;;2262579;26;20010;-68
2024/04/12 01:24:34;;;;;;;6.85;3.70;;;15.90;99.90;;;;;;2261172;26;20002;-68
2024/04/12 01:25:35;;;;;;;7.05;4.13;;;15.90;99.90;;;;;;2261090;26;20003;-68
2024/04/12 01:26:36;;;;;;;6.75;3.72;;;15.90;99.90;;;;;;2261363;26;20533;-68
2024/04/12 01:27:40;;;;;;;6.43;4.10;;;15.90;99.90;;;;;;2263115;26;20010;-69
2024/04/12 01:28:44;;;;;;;6.00;3.75;;;15.90;99.90;;;;;;2258740;26;20048;-68
2024/04/12 01:29:45;;;;;;;7.03;4.03;;;15.90;99.90;;;;;;2257976;26;20012;-69
2024/04/12 01:30:46;;;;;;;5.20;3.55;;;15.90;99.90;;;;;;2260601;26;20018;-68
2024/04/12 01:31:53;;;;;;;6.53;3.70;;;15.90;99.90;;;;;;2258328;26;20005;-68
2024/04/12 01:32:54;;;;;;;5.75;3.83;;;15.90;99.90;;;;;;2257566;26;19999;-69
2024/04/12 01:33:54;;;;;;;6.18;3.55;;;15.90;99.90;;;;;;2260307;26;19999;-68
2024/04/12 01:34:55;;;;;;;5.78;3.83;;;15.90;99.90;;;;;;2259910;26;20013;-68
2024/04/12 01:35:55;;;;;;;7.95;4.57;;;15.90;99.90;;;;;;2260871;26;20533;-68
2024/04/12 01:37:00;;;;;;;5.38;3.25;;;16.00;99.90;;;;;;2262411;26;20011;-67
2024/04/12 01:38:16;;;;;;;5.22;3.45;;;15.90;99.90;;;;;;2251432;26;20010;-68
2024/04/12 01:39:17;;;;;;;4.32;3.50;;;15.90;99.90;;;;;;2254580;26;19999;-68
2024/04/12 01:40:23;;;;;;;5.82;3.60;;;15.90;99.90;;;;;;2259695;26;20070;-69
2024/04/12 01:41:24;;;;;;;4.07;3.38;;;15.90;99.90;;;;;;2260133;26;19999;-69
2024/04/12 01:42:25;;;;;;;4.68;3.58;;;15.90;99.90;;;;;;2259823;26;20010;-68
2024/04/12 01:43:32;;;;;;;3.92;3.30;;;15.90;99.90;;;;;;2257950;26;19999;-69
2024/04/12 01:44:32;;;;;;;5.18;3.55;;;15.90;99.90;;;;;;2260226;26;20007;-68
2024/04/12 01:45:33;;;;;;;6.03;3.17;;;15.90;99.90;;;;;;2261056;26;20010;-69
2024/04/12 01:46:35;;;;;;;4.95;3.47;;;15.90;99.90;;;;;;2257727;26;20070;-69
2024/04/12 01:47:35;;;;;;;8.18;3.70;;;16.00;99.90;;;;;;2259734;26;20006;-68
2024/04/12 01:48:36;;;;;;;5.38;3.83;;;16.00;99.90;;;;;;2258993;26;19994;-67
2024/04/12 01:49:43;;;;;;;5.63;3.70;;;16.00;99.90;;;;;;2260153;26;20339;-69
2024/04/12 01:50:43;;;;;;;4.78;2.90;;;16.00;99.90;;;;;;2258295;26;20831;-69
2024/04/12 01:51:47;;;;;;;6.10;3.60;;;16.00;99.90;;;;;;2258941;26;19995;-68
2024/04/12 01:52:54;;;;;;;4.82;3.53;;;16.00;99.90;;;;;;2259344;26;19998;-69
2024/04/12 01:53:55;;;;;;;4.95;3.58;;;16.00;99.90;;;;;;2259598;26;20005;-69
2024/04/12 01:55:05;;;;;;;4.35;3.10;;;16.00;99.90;;;;;;2260395;26;20009;-68
2024/04/12 01:56:13;;;;;;;4.18;3.40;;;16.00;99.90;;;;;;2243644;26;20072;-69
2024/04/12 01:57:15;;;;;;;4.78;3.08;;;16.00;99.90;;;;;;2246107;26;20018;-69
2024/04/12 01:58:19;;;;;;;5.45;3.53;;;16.00;99.90;;;;;;2260890;26;20009;-68
2024/04/12 01:59:23;;;;;;;5.80;4.07;;;16.00;99.90;;;;;;2261704;26;20016;-68
2024/04/12 02:00:24;;;;;;;6.45;3.55;;;16.00;99.90;;;;;;2257965;26;20010;-69
2024/04/12 02:01:27;;;;;;;4.85;3.40;;;15.90;99.90;;;;;;2260295;26;20014;-69
2024/04/12 02:02:28;;;;;;;5.10;3.17;;;15.90;99.90;;;;;;2261483;26;19998;-69
2024/04/12 02:03:30;;;;;;;5.93;3.33;;;15.90;99.90;;;;;;2257937;26;20014;-68
2024/04/12 02:04:34;;;;;;;7.43;3.53;;;15.90;99.90;;;;;;2261881;26;20471;-68
2024/04/12 02:05:34;;;;;;;4.18;2.72;;;15.90;99.90;;;;;;2258485;26;20002;-68
2024/04/12 02:06:42;;;;;;;5.15;3.38;;;15.90;99.90;;;;;;2259835;26;20014;-69
2024/04/12 02:07:44;;;;;;;7.72;3.17;;;15.90;99.90;;;;;;2260622;26;20010;-68
2024/04/12 02:08:45;;;;;;;6.18;2.83;;;15.90;99.90;;;;;;2259012;26;20020;-68
2024/04/12 02:09:48;;;;;;;6.50;3.45;;;15.90;99.90;;;;;;2259074;26;20462;-68
2024/04/12 02:10:48;;;;;;;6.43;3.28;;;15.90;99.90;;;;;;2260757;26;20724;-68
2024/04/12 02:11:53;;;;;;;6.75;2.58;;;15.90;99.90;;;;;;2262792;26;20347;-69
2024/04/12 02:12:54;;;;;;;4.43;2.97;;;15.90;99.90;;;;;;2261329;26;20002;-69
2024/04/12 02:13:54;;;;;;;4.65;2.88;;;15.90;99.90;;;;;;2258516;26;20027;-68
2024/04/12 02:14:59;;;;;;;4.85;3.00;;;15.90;99.90;;;;;;2251155;26;20126;-69
2024/04/12 02:16:01;;;;;;;5.18;2.90;;;15.90;99.90;;;;;;2250976;26;20007;-68
2024/04/12 02:17:02;;;;;;;4.95;3.08;;;15.90;99.90;;;;;;2261870;26;20005;-69
2024/04/12 02:18:03;;;;;;;6.15;3.58;;;15.90;99.90;;;;;;2250204;26;20447;-68
2024/04/12 02:19:06;;;;;;;3.95;2.58;;;15.90;99.90;;;;;;2234402;26;20355;-69
2024/04/12 02:20:10;;;;;;;4.82;2.88;;;15.90;99.90;;;;;;2243708;26;20425;-68
2024/04/12 02:21:10;;;;;;;5.45;3.13;;;15.90;99.90;;;;;;2260573;26;20015;-68
2024/04/12 02:22:11;;;;;;;4.10;3.22;;;15.90;99.90;;;;;;2261647;26;20010;-69
2024/04/12 02:23:13;;;;;;;5.72;2.78;;;15.90;99.90;;;;;;2261549;26;19998;-68
2024/04/12 02:24:17;;;;;;;4.95;3.13;;;15.90;99.90;;;;;;2247362;26;20049;-68
2024/04/12 02:25:17;;;;;;;3.10;2.38;;;15.90;99.90;;;;;;2247412;26;20053;-68
2024/04/12 02:26:18;;;;;;;4.35;2.65;;;15.90;99.90;;;;;;2260703;26;20008;-69
2024/04/12 02:27:18;;;;;;;3.45;2.40;;;15.90;99.90;;;;;;2262032;26;20446;-69
2024/04/12 02:28:19;;;;;;;5.80;2.90;;;15.90;99.90;;;;;;2257495;26;20477;-68
2024/04/12 02:29:21;;;;;;;5.78;2.92;;;16.00;99.90;;;;;;2258420;26;19998;-69
2024/04/12 02:30:25;;;;;;;4.28;2.53;;;15.90;99.90;;;;;;2260232;26;20009;-69
2024/04/12 02:31:25;;;;;;;3.00;2.50;;;15.90;99.90;;;;;;2258037;26;19994;-68
2024/04/12 02:32:26;;;;;;;3.30;2.70;;;16.00;99.90;;;;;;2256431;26;20013;-68
2024/04/12 02:33:31;;;;;;;2.95;2.22;;;15.90;99.90;;;;;;2257385;26;20013;-68
2024/04/12 02:34:32;;;;;;;3.30;2.42;;;16.00;99.90;;;;;;2257622;26;20075;-68
2024/04/12 02:35:32;;;;;;;3.90;2.40;;;16.00;99.90;;;;;;2258334;26;20076;-68
2024/04/12 02:36:33;;;;;;;5.20;2.28;;;15.90;99.90;;;;;;2261523;26;20002;-68
2024/04/12 02:37:34;;;;;;;3.55;2.05;;;16.00;99.90;;;;;;2263267;26;20008;-69
2024/04/12 02:38:36;;;;;;;3.72;2.15;;;15.90;99.90;;;;;;2258714;26;20334;-68
2024/04/12 02:39:40;;;;;;;3.58;2.15;;;16.00;99.90;;;;;;2260773;26;20038;-68
2024/04/12 02:40:45;;;;;;;3.72;2.58;;;16.00;99.90;;;;;;2243771;26;20085;-68
2024/04/12 02:41:47;;;;;;;4.75;2.65;;;16.00;99.90;;;;;;2247285;26;20462;-68
2024/04/12 02:42:47;;;;;;;3.97;2.38;;;16.00;99.90;;;;;;2259815;26;20011;-68
2024/04/12 02:43:52;;;;;;;3.95;2.80;;;16.00;99.90;;;;;;2263053;26;20074;-68
2024/04/12 02:44:52;;;;;;;3.10;2.50;;;16.00;99.90;;;;;;2259878;26;20003;-68
2024/04/12 02:45:58;;;;;;;2.35;2.00;;;16.00;99.90;;;;;;2259758;26;20022;-68
2024/04/12 02:46:58;;;;;;;3.13;2.80;;;16.00;99.90;;;;;;2259276;26;19995;-68
2024/04/12 02:47:59;;;;;;;5.78;3.03;;;16.00;99.90;;;;;;2257417;26;20031;-69
2024/04/12 02:49:04;;;;;;;4.45;2.42;;;16.00;99.90;;;;;;2245149;26;20475;-69
2024/04/12 02:50:09;;;;;;;2.72;1.80;;;16.00;99.90;;;;;;2247671;26;20009;-69
2024/04/12 02:51:14;;;;;;;4.03;2.42;;;16.00;99.90;;;;;;2258139;26;20006;-69
2024/04/12 02:52:14;;;;;;;4.15;2.63;;;16.00;99.90;;;;;;2262037;26;20006;-69
2024/04/12 02:53:18;;;;;;;4.63;2.80;;;16.00;99.90;;;;;;2259164;26;20003;-68
2024/04/12 02:54:19;;;;;;;4.25;2.40;;;16.00;99.90;;;;;;2260880;26;21009;-69
2024/04/12 02:55:21;;;;;;;3.70;2.42;;;16.00;99.90;;;;;;2259527;26;20082;-69
2024/04/12 02:56:25;;;;;;;4.63;2.20;;;16.00;99.90;;;;;;2262121;26;20528;-69
2024/04/12 02:57:28;;;;;;;4.53;2.38;;;16.00;99.90;;;;;;2258596;26;19994;-68
2024/04/12 02:58:41;;;;;;;2.78;2.35;;;16.00;99.90;;;;;;2263472;26;19999;-68
2024/04/12 02:59:42;;;;;;;3.33;2.28;;;16.00;99.90;;;;;;2249272;26;20028;-68
2024/04/12 03:00:44;;;;;;;4.57;2.40;;;15.90;99.90;;;;;;2251392;26;20143;-68
2024/04/12 03:01:45;;;;;;;3.35;2.25;;;16.00;99.90;;;;;;2257844;26;20078;-68
2024/04/12 03:02:45;;;;;;;2.58;2.05;;;15.90;99.90;;;;;;2259832;26;20010;-68
2024/04/12 03:03:48;;;;;;;2.80;2.20;;;15.90;99.90;;;;;;2257683;26;20076;-68
2024/04/12 03:04:48;;;;;;;3.75;3.08;;;15.90;99.90;;;;;;2256780;26;20027;-69
2024/04/12 03:05:57;;;;;;;3.47;2.58;;;16.00;99.90;;;;;;2261523;26;20013;-69
2024/04/12 03:07:09;;;;;;;3.45;2.42;;;16.00;99.90;;;;;;2258996;26;20234;-68
2024/04/12 03:08:17;;;;;;;3.38;2.25;;;16.00;99.90;;;;;;2261194;26;19994;-68
2024/04/12 03:09:18;;;;;;;2.67;2.28;;;16.00;99.90;;;;;;2258193;26;20343;-69
2024/04/12 03:10:20;;;;;;;3.92;2.85;;;15.90;99.90;;;;;;2258478;26;20003;-69
2024/04/12 03:11:22;;;;;;;3.78;3.00;;;15.90;99.90;;;;;;2262234;26;20014;-71
2024/04/12 03:12:26;;;;;;;4.65;2.60;;;15.90;99.90;;;;;;2260978;26;20032;-71
2024/04/12 03:13:29;;;;;;;3.28;2.70;;;15.90;99.90;;;;;;2257870;26;20079;-71
2024/04/12 03:14:30;;;;;;;3.85;2.45;;;15.90;99.90;;;;;;2261973;26;20012;-70
2024/04/12 03:15:34;;;;;;;4.32;3.15;;;15.90;99.90;;;;;;2259285;26;19998;-71
2024/04/12 03:16:37;;;;;;;3.72;3.35;;;16.00;99.90;;;;;;2258813;26;19999;-71
2024/04/12 03:17:38;;;;;;;3.35;3.05;;;16.00;99.90;;;;;;2263248;26;20034;-71
2024/04/12 03:18:42;;;;;;;8.70;3.00;;;16.00;99.90;;;;;;2261400;26;20470;-71
2024/04/12 03:19:43;;;;;;;3.70;2.35;;;16.00;99.90;;;;;;2261045;26;20002;-71
2024/04/12 03:20:44;;;;;;;3.33;2.80;;;16.00;99.90;;;;;;2261196;26;20487;-71
2024/04/12 03:21:50;;;;;;;3.42;3.05;;;16.00;99.90;;;;;;2249223;26;20006;-71
2024/04/12 03:22:52;;;;;;;3.17;2.80;;;16.00;99.90;;;;;;2249781;26;20480;-71
2024/04/12 03:23:57;;;;;;;3.85;3.00;;;16.00;99.90;;;;;;2244709;26;21181;-71
2024/04/12 03:24:57;;;;;;;4.13;2.67;;;16.00;99.90;;;;;;2244907;26;20000;-71
2024/04/12 03:25:58;;;;;;;4.65;2.85;;;16.00;99.90;;;;;;2261670;26;20002;-71
2024/04/12 03:27:01;;;;;;;3.78;2.67;;;16.00;99.90;;;;;;2265100;26;20013;-71
2024/04/12 03:28:03;;;;;;;4.13;2.80;;;16.00;99.90;;;;;;2258336;26;20002;-71
2024/04/12 03:29:05;;;;;;;3.25;2.55;;;16.00;99.90;;;;;;2259866;26;20066;-71
2024/04/12 03:30:15;;;;;;;4.30;3.30;;;16.00;99.90;;;;;;2257985;26;20335;-71
2024/04/12 03:31:17;;;;;;;5.13;2.47;;;16.00;99.90;;;;;;2258810;26;19999;-71
2024/04/12 03:32:19;;;;;;;3.17;2.63;;;16.00;99.90;;;;;;2258189;26;19999;-71
2024/04/12 03:33:19;;;;;;;3.95;2.50;;;16.00;99.90;;;;;;2259633;26;19994;-71
2024/04/12 03:34:20;;;;;;;6.00;2.60;;;16.00;99.90;;;;;;2260115;26;19998;-71
2024/04/12 03:35:20;;;;;;;3.83;2.70;;;16.00;99.90;;;;;;2260697;26;20050;-71
2024/04/12 03:36:26;;;;;;;3.53;2.85;;;16.00;99.90;;;;;;2260570;26;20071;-71
2024/04/12 03:38:24;;;;;;;4.85;3.13;;;16.00;99.90;;;;;;2258487;26;20541;-71
2024/04/12 03:38:47;;;;;;;4.38;3.15;;;16.00;99.90;;;;;;2260943;26;20074;-71
2024/04/12 03:39:59;;;;;;;4.20;2.80;;;16.00;99.90;;;;;;2247414;26;19995;-72
2024/04/12 03:41:00;;;;;;;5.68;2.90;;;15.90;99.90;;;;;;2246892;26;19995;-71
2024/04/12 03:42:06;;;;;;;3.38;2.58;;;15.90;99.90;;;;;;2258144;26;19999;-71
2024/04/12 03:43:06;;;;;;;5.13;2.72;;;16.00;99.90;;;;;;2260351;26;20002;-71
2024/04/12 03:44:08;;;;;;;4.43;3.20;;;16.00;99.90;;;;;;2262982;26;20055;-71
2024/04/12 03:45:15;;;;;;;3.50;3.00;;;15.90;99.90;;;;;;2263710;26;19998;-70
2024/04/12 03:46:16;;;;;;;4.65;3.10;;;16.00;99.90;;;;;;2257886;26;20002;-71
2024/04/12 03:47:18;;;;;;;3.17;2.90;;;16.00;99.90;;;;;;2260186;26;20813;-71
2024/04/12 03:48:19;;;;;;;6.53;3.38;;;16.00;99.90;;;;;;2243578;26;19995;-70
2024/04/12 03:49:21;;;;;;;3.17;2.65;;;16.00;99.90;;;;;;2246985;26;20100;-71
2024/04/12 03:50:21;;;;;;;4.50;2.67;;;16.00;99.90;;;;;;2258931;26;20021;-70
2024/04/12 03:51:24;;;;;;;3.85;2.53;;;16.00;99.90;;;;;;2258797;26;20458;-71
2024/04/12 03:52:26;;;;;;;3.90;2.67;;;16.00;99.90;;;;;;2258894;26;20075;-71
2024/04/12 03:53:30;;;;;;;3.20;2.80;;;16.00;99.90;;;;;;2260455;26;20043;-71
2024/04/12 03:54:31;;;;;;;7.30;3.10;;;16.00;99.90;;;;;;2261166;26;20026;-71
2024/04/12 03:55:31;;;;;;;3.15;2.80;;;16.00;99.90;;;;;;2258295;26;20025;-71
2024/04/12 03:56:32;;;;;;;5.68;3.13;;;16.00;99.90;;;;;;2259230;26;19999;-71
2024/04/12 03:57:34;;;;;;;4.70;3.05;;;16.00;99.90;;;;;;2257571;26;20002;-71
2024/04/12 03:58:34;;;;;;;4.15;3.55;;;16.00;99.90;;;;;;2257675;26;20046;-71
2024/04/12 03:59:35;;;;;;;4.47;3.05;;;16.00;99.90;;;;;;2258282;26;20782;-71
2024/04/12 04:00:38;;;;;;;3.75;3.08;;;16.00;99.90;;;;;;2259954;26;19999;-71
2024/04/12 04:01:44;;;;;;;4.38;2.97;;;16.00;99.90;;;;;;2261951;26;20002;-71
2024/04/12 04:02:48;;;;;;;4.00;3.03;;;16.00;99.90;;;;;;2242440;26;19999;-71
2024/04/12 04:03:49;;;;;;;4.97;3.30;;;16.00;99.90;;;;;;2246160;26;20013;-71
2024/04/12 04:04:49;;;;;;;5.00;3.13;;;16.00;99.90;;;;;;2259704;26;20029;-71
2024/04/12 04:05:53;;;;;;;5.30;3.33;;;16.00;99.90;;;;;;2258178;26;20041;-71
2024/04/12 04:06:55;;;;;;;5.18;3.72;;;16.00;99.90;;;;;;2261536;26;20002;-71
2024/04/12 04:07:55;;;;;;;5.88;4.10;;;16.10;99.90;;;;;;2260034;26;20331;-71
2024/04/12 04:08:56;;;;;;;6.10;4.05;;;16.00;99.90;;;;;;2259698;26;20002;-72
2024/04/12 04:09:58;;;;;;;5.65;4.43;;;16.10;99.90;;;;;;2257173;26;19999;-71
2024/04/12 04:11:02;;;;;;;8.70;4.80;;;16.10;99.90;;;;;;2259410;26;20010;-71
2024/04/12 04:12:03;;;;;;;6.47;5.03;;;16.10;99.90;;;;;;2250357;26;19998;-71
2024/04/12 04:13:04;;;;;;;5.72;5.00;;;16.10;99.90;;;;;;2248237;26;19999;-72
2024/04/12 04:14:08;;;;;;;6.90;5.07;;;16.00;99.90;;;;;;2257394;26;19999;-71
2024/04/12 04:15:09;;;;;;;6.07;4.55;;;16.00;99.90;;;;;;2261128;26;20070;-72
2024/04/12 04:16:10;;;;;;;5.13;4.70;;;16.00;99.90;;;;;;2258137;26;20002;-71
2024/04/12 04:17:11;;;;;;;5.82;5.22;;;16.00;99.90;;;;;;2259727;26;20485;-71
2024/04/12 04:18:11;;;;;;;5.85;5.20;;;16.00;99.90;;;;;;2260223;26;20061;-71
2024/04/12 04:19:16;;;;;;;5.88;5.28;;;16.00;99.90;;;;;;2254973;26;20010;-71
2024/04/12 04:20:17;;;;;;;6.93;5.10;;;16.00;99.90;;;;;;2257928;26;20002;-71
2024/04/12 04:21:24;;;;;;;5.82;4.95;;;16.00;99.90;;;;;;2261435;26;20277;-71
2024/04/12 04:23:38;;;;;;;5.85;5.22;;;16.00;99.90;;;;;;2261479;26;20477;-71
2024/04/12 04:24:39;;;;;;;8.82;5.90;;;16.00;99.90;;;;;;2257205;26;20072;-71
2024/04/12 04:25:39;;;;;;;6.60;5.47;;;16.00;99.90;;;;;;2259470;26;20079;-71
2024/04/12 04:26:41;;;;;;;6.90;5.70;;;16.00;99.90;;;;;;2257611;26;20027;-71
2024/04/12 04:27:41;;;;;;;7.00;5.00;;;16.00;99.90;;;;;;2258091;26;20006;-71
2024/04/12 04:28:42;;;;;;;7.25;6.13;;;16.00;99.90;;;;;;2260142;26;20003;-71
2024/04/12 04:29:44;;;;;;;6.15;5.32;;;16.00;99.90;;;;;;2259119;26;19998;-71
2024/04/12 04:30:44;;;;;;;7.47;5.13;;;16.00;99.90;;;;;;2258965;26;20518;-71
2024/04/12 04:31:47;;;;;;;6.07;5.45;;;16.00;99.90;;;;;;2257597;26;20393;-71
2024/04/12 04:32:47;;;;;;;5.70;4.97;;;16.00;99.90;;;;;;2256040;26;20039;-71
2024/04/12 04:33:48;;;;;;;7.78;5.53;;;16.00;99.90;;;;;;2244659;26;19994;-71
2024/04/12 04:35:04;;;;;;;6.95;5.32;;;16.00;99.90;;;;;;2244904;26;20478;-71
2024/04/12 04:36:11;;;;;;;6.05;5.13;;;16.00;99.90;;;;;;2259907;26;20009;-71
2024/04/12 04:37:14;;;;;;;6.35;5.65;;;16.00;99.90;;;;;;2245375;26;20092;-71
2024/04/12 04:38:16;;;;;;;10.82;5.88;;;15.90;99.90;;;;;;2236780;26;20007;-71
2024/04/12 04:39:17;;;;;;;7.93;6.38;;;15.90;99.90;;;;;;2243273;26;20015;-71
2024/04/12 04:40:18;;;;;;;8.05;4.95;;;16.00;99.90;;;;;;2260246;26;19998;-71
2024/04/12 04:41:19;;;;;;;8.48;5.85;;;16.00;99.90;;;;;;2261179;26;20454;-71
2024/04/12 04:42:23;;;;;;;7.32;6.10;;;16.00;99.90;;;;;;2258265;26;20037;-71
2024/04/12 04:43:24;;;;;;;8.57;5.13;;;16.00;99.90;;;;;;2259232;26;20664;-71
2024/04/12 04:44:24;;;;;;;5.72;5.13;;;16.00;99.90;;;;;;2259695;26;20075;-71
2024/04/12 04:45:31;;;;;;;6.85;5.13;;;16.00;99.90;;;;;;2257913;26;20072;-71
2024/04/12 04:46:32;;;;;;;6.75;5.28;;;16.00;99.90;;;;;;2248059;26;20003;-72
2024/04/12 04:47:34;;;;;;;7.88;4.55;;;16.00;99.90;;;;;;2249700;26;20034;-71
2024/04/12 04:48:35;;;;;;;4.72;4.13;;;16.00;99.90;;;;;;2257168;26;19999;-71
2024/04/12 04:49:36;;;;;;;4.90;4.40;;;16.00;99.90;;;;;;2261410;26;20013;-72
2024/04/12 04:50:36;;;;;;;5.60;4.40;;;16.00;99.90;;;;;;2257765;26;20396;-72
2024/04/12 04:51:39;;;;;;;6.22;4.70;;;16.00;99.90;;;;;;2260876;26;20003;-72
2024/04/12 04:52:40;;;;;;;5.22;4.25;;;16.00;99.90;;;;;;2256944;26;19999;-72
2024/04/12 04:53:41;;;;;;;5.68;4.57;;;16.00;99.90;;;;;;2258650;26;19999;-71
2024/04/12 04:54:41;;;;;;;6.22;4.75;;;15.90;99.90;;;;;;2261057;26;20010;-71
2024/04/12 04:55:44;;;;;;;5.38;4.68;;;16.00;99.90;;;;;;2259084;26;20013;-72
2024/04/12 04:56:45;;;;;;;6.20;4.35;;;16.00;99.90;;;;;;2263750;26;20074;-72
2024/04/12 04:57:49;;;;;;;5.38;4.85;;;15.90;99.90;;;;;;2261297;26;20469;-72
2024/04/12 04:58:51;;;;;;;6.60;4.20;;;16.00;99.90;;;;;;2249323;26;20007;-71
2024/04/12 04:59:56;;;;;;;6.47;4.53;;;16.00;99.90;;;;;;2253389;26;20003;-71
2024/04/12 05:00:58;;;;;;;5.72;4.80;;;16.00;99.90;;;;;;2259378;26;20518;-72
2024/04/12 05:02:01;;;;;;;5.85;4.03;;;15.90;99.90;;;;;;2258355;26;19998;-71
2024/04/12 05:03:02;;;;;;;4.47;3.78;;;15.90;99.90;;;;;;2261260;26;20014;-72
2024/04/12 05:04:03;;;;;;;4.75;3.70;;;15.90;99.90;;;;;;2259167;26;20046;-72
2024/04/12 05:05:04;;;;;;;9.45;4.35;;;15.90;99.90;;;;;;2251699;26;19998;-71
2024/04/12 05:06:07;;;;;;;4.88;4.10;;;15.90;99.90;;;;;;2252907;26;20006;-72
2024/04/12 05:07:08;;;;;;;4.82;4.28;;;15.90;99.90;;;;;;2262389;26;19998;-72
2024/04/12 05:08:08;;;;;;;4.40;4.00;;;15.80;99.90;;;;;;2259397;26;20440;-71
2024/04/12 05:09:09;;;;;;;5.53;4.22;;;15.80;99.90;;;;;;2258993;26;20042;-71
2024/04/12 05:10:14;;;;;;;5.25;3.92;;;15.80;99.90;;;;;;2259809;26;20006;-71
2024/04/12 05:11:15;;;;;;;4.68;3.85;;;15.80;99.90;;;;;;2259277;26;20001;-71
2024/04/12 05:12:15;;;;;;;4.55;4.05;;;15.80;99.90;;;;;;2262405;26;19998;-71
2024/04/12 05:13:17;;;;;;;5.00;4.50;;;15.80;99.90;;;;;;2263786;26;19998;-72
2024/04/12 05:16:42;;;;;;;4.30;3.90;;;15.70;99.90;;;;;;2261695;26;20623;-71
2024/04/12 05:17:42;;;;;;;4.45;4.05;;;15.80;99.90;;;;;;2260222;26;20003;-71
2024/04/12 05:19:08;;;;;;;5.95;4.65;;;15.80;99.90;;;;;;2259064;26;20017;-71
2024/04/12 05:20:14;;;;;;;4.97;4.47;;;15.80;99.90;;;;;;2260378;26;20067;-71
2024/04/12 05:21:17;;;;;;;4.28;3.88;;;15.80;99.90;;;;;;2260248;26;19994;-71
2024/04/12 05:22:19;;;;;;;3.90;3.58;;;15.70;99.90;;;;;;2258924;26;20007;-71
2024/04/12 05:23:20;;;;;;;6.60;4.20;;;15.70;99.90;;;;;;2260812;26;19999;-71
2024/04/12 05:24:24;;;;;;;4.43;4.03;;;15.80;99.90;;;;;;2259989;26;20071;-71
2024/04/12 05:25:24;;;;;;;5.22;3.90;;;15.80;99.90;;;;;;2262302;26;20011;-71
2024/04/12 05:26:28;;;;;;;4.50;4.10;;;15.70;99.90;;;;;;2261526;26;20017;-71
2024/04/12 05:27:30;;;;;;;4.88;4.30;;;15.80;99.90;;;;;;2241100;26;20017;-70
2024/04/12 05:28:31;;;;;;;4.93;4.28;;;15.80;99.90;;;;;;2248194;26;20007;-71
2024/04/12 05:29:32;;;;;;;6.72;4.30;;;15.80;99.90;;;;;;2263644;26;20462;-70
2024/04/12 05:30:37;;;;;;;5.68;4.90;;;15.80;99.90;;;;;;2264722;26;20594;-71